sensor_id;sensor_type;location;lat;lon;timestamp;pressure;altitude;pressure_sealevel;temperature;humidity
23473;BME280;11909;52.516;13.564;2023-10-13T00:00:34;100710.09;;;13.01;100.00
23473;BME280;11909;52.516;13.564;2023-10-13T00:03:04;100699.41;;;12.99;100.00
23473;BME280;11909;52.516;13.564;2023-10-13T00:05:33;100704.91;;;12.99;100.00
23473;BME280;11909;52.516;13.564;2023-10-13T00:08:02;100698.56;;;12.99;100.00
23473;BME280;11909;52.516;13.564;2023-10-13T00:10:31;100695.00;;;12.98;100.00
23473;BME280;11909;52.516;13.564;2023-10-13T00:13:00;100691.94;;;13.00;100.00
23473;BME280;11909;52.516;13.564;2023-10-13T00:15:41;100690.81;;;13.01;100.00
23473;BME280;11909;52.516;13.564;2023-10-13T00:18:13;100695.75;;;13.04;100.00
23473;BME280;11909;52.516;13.564;2023-10-13T00:20:41;100695.53;;;13.00;100.00
23473;BME280;11909;52.516;13.564;2023-10-13T00:23:15;100685.03;;;13.02;100.00
23473;BME280;11909;52.516;13.564;2023-10-13T00:25:48;100692.44;;;13.02;100.00
23473;BME280;11909;52.516;13.564;2023-10-13T00:28:26;100690.28;;;12.99;100.00
23473;BME280;11909;52.516;13.564;2023-10-13T00:31:04;100697.75;;;12.98;100.00
23473;BME280;11909;52.516;13.564;2023-10-13T00:33:38;100691.72;;;12.96;100.00
23473;BME280;11909;52.516;13.564;2023-10-13T00:36:07;100685.09;;;12.97;100.00
23473;BME280;11909;52.516;13.564;2023-10-13T00:38:43;100678.47;;;12.98;100.00
23473;BME280;11909;52.516;13.564;2023-10-13T00:41:15;100665.81;;;12.97;100.00
23473;BME280;11909;52.516;13.564;2023-10-13T00:43:45;100664.09;;;13.01;100.00
23473;BME280;11909;52.516;13.564;2023-10-13T00:46:13;100666.25;;;13.04;100.00
23473;BME280;11909;52.516;13.564;2023-10-13T00:48:45;100673.13;;;13.07;100.00
23473;BME280;11909;52.516;13.564;2023-10-13T00:51:19;100658.50;;;13.07;100.00
23473;BME280;11909;52.516;13.564;2023-10-13T00:54:01;100661.56;;;13.05;100.00
23473;BME280;11909;52.516;13.564;2023-10-13T00:56:29;100670.13;;;13.03;100.00
23473;BME280;11909;52.516;13.564;2023-10-13T00:58:58;100670.41;;;13.02;100.00
23473;BME280;11909;52.516;13.564;2023-10-13T01:01:30;100669.59;;;13.01;100.00
23473;BME280;11909;52.516;13.564;2023-10-13T01:04:00;100675.63;;;13.03;100.00
23473;BME280;11909;52.516;13.564;2023-10-13T01:06:29;100673.41;;;13.05;100.00
23473;BME280;11909;52.516;13.564;2023-10-13T01:08:59;100671.25;;;13.02;100.00
23473;BME280;11909;52.516;13.564;2023-10-13T01:11:38;100663.28;;;13.01;100.00
23473;BME280;11909;52.516;13.564;2023-10-13T01:14:06;100668.50;;;13.02;100.00
23473;BME280;11909;52.516;13.564;2023-10-13T01:16:34;100669.09;;;12.99;100.00
23473;BME280;11909;52.516;13.564;2023-10-13T01:19:06;100663.28;;;13.01;100.00
23473;BME280;11909;52.516;13.564;2023-10-13T01:21:33;100656.97;;;13.00;100.00
23473;BME280;11909;52.516;13.564;2023-10-13T01:24:03;100652.25;;;13.01;100.00
23473;BME280;11909;52.516;13.564;2023-10-13T01:26:35;100654.50;;;12.99;100.00
23473;BME280;11909;52.516;13.564;2023-10-13T01:29:05;100663.28;;;13.01;100.00
23473;BME280;11909;52.516;13.564;2023-10-13T01:31:39;100671.00;;;12.99;100.00
23473;BME280;11909;52.516;13.564;2023-10-13T01:34:13;100672.13;;;12.98;100.00
23473;BME280;11909;52.516;13.564;2023-10-13T01:36:41;100673.56;;;12.95;100.00
23473;BME280;11909;52.516;13.564;2023-10-13T01:39:12;100667.22;;;12.95;100.00
23473;BME280;11909;52.516;13.564;2023-10-13T01:41:43;100674.09;;;12.97;100.00
23473;BME280;11909;52.516;13.564;2023-10-13T01:44:11;100672.97;;;12.98;100.00
23473;BME280;11909;52.516;13.564;2023-10-13T01:46:38;100678.69;;;13.02;100.00
23473;BME280;11909;52.516;13.564;2023-10-13T01:49:06;100677.34;;;12.99;100.00
23473;BME280;11909;52.516;13.564;2023-10-13T01:51:34;100662.22;;;12.97;100.00
23473;BME280;11909;52.516;13.564;2023-10-13T01:54:02;100670.56;;;12.91;100.00
23473;BME280;11909;52.516;13.564;2023-10-13T01:56:31;100670.56;;;12.91;100.00
23473;BME280;11909;52.516;13.564;2023-10-13T01:58:59;100675.19;;;12.96;100.00
23473;BME280;11909;52.516;13.564;2023-10-13T02:01:33;100670.88;;;12.90;100.00
23473;BME280;11909;52.516;13.564;2023-10-13T02:04:02;100672.50;;;12.91;100.00
23473;BME280;11909;52.516;13.564;2023-10-13T02:06:31;100670.88;;;12.90;100.00
23473;BME280;11909;52.516;13.564;2023-10-13T02:09:00;100675.25;;;12.91;100.00
23473;BME280;11909;52.516;13.564;2023-10-13T02:11:39;100663.16;;;12.92;100.00
23473;BME280;11909;52.516;13.564;2023-10-13T02:14:07;100661.47;;;12.91;100.00
23473;BME280;11909;52.516;13.564;2023-10-13T02:16:38;100654.06;;;12.91;100.00
23473;BME280;11909;52.516;13.564;2023-10-13T02:19:06;100646.69;;;12.87;100.00
23473;BME280;11909;52.516;13.564;2023-10-13T02:21:35;100649.66;;;12.90;100.00
23473;BME280;11909;52.516;13.564;2023-10-13T02:24:11;100647.19;;;12.89;100.00
23473;BME280;11909;52.516;13.564;2023-10-13T02:26:41;100634.25;;;12.89;100.00
23473;BME280;11909;52.516;13.564;2023-10-13T02:29:09;100622.13;;;12.90;100.00
23473;BME280;11909;52.516;13.564;2023-10-13T02:31:40;100626.00;;;12.89;100.00
23473;BME280;11909;52.516;13.564;2023-10-13T02:34:09;100614.66;;;12.91;100.00
23473;BME280;11909;52.516;13.564;2023-10-13T02:36:36;100609.38;;;12.95;100.00
23473;BME280;11909;52.516;13.564;2023-10-13T02:39:05;100613.25;;;12.94;100.00
23473;BME280;11909;52.516;13.564;2023-10-13T02:41:35;100614.88;;;12.95;100.00
23473;BME280;11909;52.516;13.564;2023-10-13T02:44:06;100613.78;;;12.96;100.00
23473;BME280;11909;52.516;13.564;2023-10-13T02:46:35;100600.88;;;12.91;100.00
23473;BME280;11909;52.516;13.564;2023-10-13T02:49:03;100598.69;;;12.93;100.00
23473;BME280;11909;52.516;13.564;2023-10-13T02:51:38;100601.44;;;12.93;100.00
23473;BME280;11909;52.516;13.564;2023-10-13T02:54:10;100598.69;;;12.93;100.00
23473;BME280;11909;52.516;13.564;2023-10-13T02:56:39;100600.31;;;12.94;100.00
23473;BME280;11909;52.516;13.564;2023-10-13T02:59:16;100596.81;;;12.88;100.00
23473;BME280;11909;52.516;13.564;2023-10-13T03:01:47;100598.97;;;12.91;100.00
23473;BME280;11909;52.516;13.564;2023-10-13T03:04:18;100591.31;;;12.88;100.00
23473;BME280;11909;52.516;13.564;2023-10-13T03:06:52;100587.44;;;12.89;100.00
23473;BME280;11909;52.516;13.564;2023-10-13T03:09:19;100573.94;;;12.88;100.00
23473;BME280;11909;52.516;13.564;2023-10-13T03:11:49;100587.06;;;12.96;100.00
23473;BME280;11909;52.516;13.564;2023-10-13T03:14:20;100582.88;;;12.99;100.00
23473;BME280;11909;52.516;13.564;2023-10-13T03:16:53;100573.81;;;12.98;100.00
23473;BME280;11909;52.516;13.564;2023-10-13T03:19:21;100565.53;;;12.98;100.00
23473;BME280;11909;52.516;13.564;2023-10-13T03:21:59;100568.91;;;12.95;100.00
23473;BME280;11909;52.516;13.564;2023-10-13T03:24:36;100554.00;;;12.96;100.00
23473;BME280;11909;52.516;13.564;2023-10-13T03:27:08;100547.06;;;12.99;100.00
23473;BME280;11909;52.516;13.564;2023-10-13T03:29:37;100534.91;;;13.00;100.00
23473;BME280;11909;52.516;13.564;2023-10-13T03:32:10;100531.88;;;13.01;100.00
23473;BME280;11909;52.516;13.564;2023-10-13T03:34:39;100532.38;;;13.03;100.00
23473;BME280;11909;52.516;13.564;2023-10-13T03:37:17;100532.38;;;13.03;100.00
23473;BME280;11909;52.516;13.564;2023-10-13T03:40:05;100526.88;;;13.03;100.00
23473;BME280;11909;52.516;13.564;2023-10-13T03:42:42;100512.59;;;13.01;100.00
23473;BME280;11909;52.516;13.564;2023-10-13T03:45:17;100510.56;;;13.07;100.00
23473;BME280;11909;52.516;13.564;2023-10-13T03:47:48;100505.06;;;13.07;100.00
23473;BME280;11909;52.516;13.564;2023-10-13T03:50:19;100489.94;;;13.04;100.00
23473;BME280;11909;52.516;13.564;2023-10-13T03:52:56;100501.97;;;13.09;100.00
23473;BME280;11909;52.516;13.564;2023-10-13T03:55:24;100501.47;;;13.07;100.00
23473;BME280;11909;52.516;13.564;2023-10-13T03:57:54;100503.19;;;13.02;100.00
23473;BME280;11909;52.516;13.564;2023-10-13T04:00:27;100502.91;;;13.04;100.00
23473;BME280;11909;52.516;13.564;2023-10-13T04:02:55;100486.06;;;13.05;100.00
23473;BME280;11909;52.516;13.564;2023-10-13T04:05:36;100498.09;;;13.10;100.00
23473;BME280;11909;52.516;13.564;2023-10-13T04:08:08;100496.47;;;13.09;100.00
23473;BME280;11909;52.516;13.564;2023-10-13T04:10:55;100499.22;;;13.09;100.00
23473;BME280;11909;52.516;13.564;2023-10-13T04:13:40;100492.91;;;13.08;100.00
23473;BME280;11909;52.516;13.564;2023-10-13T04:16:33;100489.03;;;13.09;100.00
23473;BME280;11909;52.516;13.564;2023-10-13T04:19:05;100476.91;;;13.10;100.00
23473;BME280;11909;52.516;13.564;2023-10-13T04:21:38;100486.47;;;13.13;100.00
23473;BME280;11909;52.516;13.564;2023-10-13T04:24:21;100480.38;;;13.16;100.00
23473;BME280;11909;52.516;13.564;2023-10-13T04:26:51;100484.44;;;13.18;100.00
23473;BME280;11909;52.516;13.564;2023-10-13T04:29:37;100487.72;;;13.20;100.00
23473;BME280;11909;52.516;13.564;2023-10-13T04:32:19;100486.09;;;13.19;100.00
23473;BME280;11909;52.516;13.564;2023-10-13T04:34:55;100479.78;;;13.19;100.00
23473;BME280;11909;52.516;13.564;2023-10-13T04:37:31;100467.63;;;13.20;100.00
23473;BME280;11909;52.516;13.564;2023-10-13T04:40:07;100461.78;;;13.22;100.00
23473;BME280;11909;52.516;13.564;2023-10-13T04:42:37;100462.63;;;13.22;100.00
23473;BME280;11909;52.516;13.564;2023-10-13T04:45:17;100453.53;;;13.22;100.00
23473;BME280;11909;52.516;13.564;2023-10-13T04:48:05;100454.13;;;13.32;100.00
23473;BME280;11909;52.516;13.564;2023-10-13T04:50:59;100445.97;;;13.27;100.00
23473;BME280;11909;52.516;13.564;2023-10-13T04:53:41;100443.22;;;13.27;100.00
23473;BME280;11909;52.516;13.564;2023-10-13T04:56:23;100445.19;;;13.27;100.00
23473;BME280;11909;52.516;13.564;2023-10-13T04:59:20;100438.53;;;13.28;100.00
23473;BME280;11909;52.516;13.564;2023-10-13T05:02:02;100428.03;;;13.30;100.00
23473;BME280;11909;52.516;13.564;2023-10-13T05:04:50;100431.28;;;13.32;100.00
23473;BME280;11909;52.516;13.564;2023-10-13T05:07:35;100423.63;;;13.29;100.00
23473;BME280;11909;52.516;13.564;2023-10-13T05:10:21;100434.34;;;13.30;100.00
23473;BME280;11909;52.516;13.564;2023-10-13T05:13:06;100444.47;;;13.35;100.00
23473;BME280;11909;52.516;13.564;2023-10-13T05:15:52;100437.31;;;13.34;100.00
23473;BME280;11909;52.516;13.564;2023-10-13T05:18:37;100439.44;;;13.37;100.00
23473;BME280;11909;52.516;13.564;2023-10-13T05:21:24;100435.88;;;13.37;100.00
23473;BME280;11909;52.516;13.564;2023-10-13T05:24:10;100435.88;;;13.37;100.00
23473;BME280;11909;52.516;13.564;2023-10-13T05:26:56;100438.94;;;13.35;100.00
23473;BME280;11909;52.516;13.564;2023-10-13T05:29:43;100429.56;;;13.36;100.00
23473;BME280;11909;52.516;13.564;2023-10-13T05:32:28;100419.53;;;13.40;100.00
23473;BME280;11909;52.516;13.564;2023-10-13T05:35:14;100424.25;;;13.40;100.00
23473;BME280;11909;52.516;13.564;2023-10-13T05:38:02;100436.00;;;13.45;100.00
23473;BME280;11909;52.516;13.564;2023-10-13T05:41:03;100437.94;;;13.45;100.00
23473;BME280;11909;52.516;13.564;2023-10-13T05:43:50;100443.47;;;13.45;100.00
23473;BME280;11909;52.516;13.564;2023-10-13T05:46:37;100441.22;;;13.47;100.00
23473;BME280;11909;52.516;13.564;2023-10-13T05:49:28;100437.94;;;13.45;100.00
23473;BME280;11909;52.516;13.564;2023-10-13T05:52:16;100431.31;;;13.46;100.00
23473;BME280;11909;52.516;13.564;2023-10-13T05:55:08;100416.91;;;13.49;100.00
23473;BME280;11909;52.516;13.564;2023-10-13T05:57:54;100435.59;;;13.52;100.00
23473;BME280;11909;52.516;13.564;2023-10-13T06:00:41;100423.63;;;13.57;100.00
23473;BME280;11909;52.516;13.564;2023-10-13T06:03:26;100422.19;;;13.59;100.00
23473;BME280;11909;52.516;13.564;2023-10-13T06:06:12;100417.28;;;13.56;100.00
23473;BME280;11909;52.516;13.564;2023-10-13T06:08:57;100422.53;;;13.58;100.00
23473;BME280;11909;52.516;13.564;2023-10-13T06:11:59;100427.13;;;13.62;100.00
23473;BME280;11909;52.516;13.564;2023-10-13T06:14:45;100414.34;;;13.67;100.00
23473;BME280;11909;52.516;13.564;2023-10-13T06:17:30;100402.34;;;13.71;100.00
23473;BME280;11909;52.516;13.564;2023-10-13T06:20:16;100400.94;;;13.74;100.00
23473;BME280;11909;52.516;13.564;2023-10-13T06:23:01;100401.44;;;13.76;100.00
23473;BME280;11909;52.516;13.564;2023-10-13T06:25:50;100404.56;;;13.83;100.00
23473;BME280;11909;52.516;13.564;2023-10-13T06:28:37;100403.34;;;13.89;100.00
23473;BME280;11909;52.516;13.564;2023-10-13T06:31:10;100403.66;;;13.88;100.00
23473;BME280;11909;52.516;13.564;2023-10-13T06:33:49;100398.97;;;13.88;100.00
23473;BME280;11909;52.516;13.564;2023-10-13T06:36:17;100402.72;;;13.93;100.00
23473;BME280;11909;52.516;13.564;2023-10-13T06:38:45;100407.41;;;13.92;100.00
23473;BME280;11909;52.516;13.564;2023-10-13T06:41:22;100405.47;;;13.93;100.00
23473;BME280;11909;52.516;13.564;2023-10-13T06:43:59;100406.78;;;13.95;100.00
23473;BME280;11909;52.516;13.564;2023-10-13T06:46:27;100412.38;;;14.04;100.00
23473;BME280;11909;52.516;13.564;2023-10-13T06:48:56;100402.78;;;14.01;100.00
23473;BME280;11909;52.516;13.564;2023-10-13T06:51:26;100393.38;;;14.02;100.00
23473;BME280;11909;52.516;13.564;2023-10-13T06:53:58;100406.56;;;14.05;100.00
23473;BME280;11909;52.516;13.564;2023-10-13T06:56:27;100410.00;;;14.11;100.00
23473;BME280;11909;52.516;13.564;2023-10-13T06:58:56;100396.22;;;14.11;100.00
23473;BME280;11909;52.516;13.564;2023-10-13T07:01:30;100399.66;;;14.17;100.00
23473;BME280;11909;52.516;13.564;2023-10-13T07:04:07;100397.78;;;14.26;100.00
23473;BME280;11909;52.516;13.564;2023-10-13T07:06:40;100402.31;;;14.22;100.00
23473;BME280;11909;52.516;13.564;2023-10-13T07:09:17;100391.28;;;14.22;100.00
23473;BME280;11909;52.516;13.564;2023-10-13T07:11:59;100396.66;;;14.27;100.00
23473;BME280;11909;52.516;13.564;2023-10-13T07:14:30;100389.22;;;14.37;100.00
23473;BME280;11909;52.516;13.564;2023-10-13T07:17:02;100385.34;;;14.38;100.00
23473;BME280;11909;52.516;13.564;2023-10-13T07:19:32;100390.63;;;14.48;100.00
23473;BME280;11909;52.516;13.564;2023-10-13T07:22:01;100393.53;;;14.52;100.00
23473;BME280;11909;52.516;13.564;2023-10-13T07:24:47;100393.53;;;14.52;100.00
23473;BME280;11909;52.516;13.564;2023-10-13T07:27:15;100387.78;;;14.62;100.00
23473;BME280;11909;52.516;13.564;2023-10-13T07:29:50;100398.38;;;14.69;100.00
23473;BME280;11909;52.516;13.564;2023-10-13T07:32:33;100396.41;;;14.69;100.00
23473;BME280;11909;52.516;13.564;2023-10-13T07:35:02;100393.72;;;14.78;100.00
23473;BME280;11909;52.516;13.564;2023-10-13T07:37:34;100398.31;;;14.83;100.00
23473;BME280;11909;52.516;13.564;2023-10-13T07:40:03;100394.41;;;14.84;100.00
23473;BME280;11909;52.516;13.564;2023-10-13T07:42:38;100389.69;;;14.84;100.00
23473;BME280;11909;52.516;13.564;2023-10-13T07:45:07;100385.00;;;14.85;100.00
23473;BME280;11909;52.516;13.564;2023-10-13T07:47:39;100374.56;;;14.82;100.00
23473;BME280;11909;52.516;13.564;2023-10-13T07:50:08;100381.44;;;14.93;100.00
23473;BME280;11909;52.516;13.564;2023-10-13T07:52:36;100383.56;;;14.96;100.00
23473;BME280;11909;52.516;13.564;2023-10-13T07:55:07;100382.25;;;14.94;100.00
23473;BME280;11909;52.516;13.564;2023-10-13T07:57:47;100385.19;;;14.97;100.00
23473;BME280;11909;52.516;13.564;2023-10-13T08:00:23;100401.00;;;15.05;100.00
23473;BME280;11909;52.516;13.564;2023-10-13T08:03:07;100385.22;;;15.06;100.00
23473;BME280;11909;52.516;13.564;2023-10-13T08:05:52;100381.19;;;15.12;100.00
23473;BME280;11909;52.516;13.564;2023-10-13T08:08:25;100385.25;;;15.15;100.00
23473;BME280;11909;52.516;13.564;2023-10-13T08:11:01;100386.22;;;15.19;100.00
23473;BME280;11909;52.516;13.564;2023-10-13T08:13:35;100387.06;;;15.19;100.00
23473;BME280;11909;52.516;13.564;2023-10-13T08:16:17;100384.47;;;15.23;100.00
23473;BME280;11909;52.516;13.564;2023-10-13T08:18:49;100383.47;;;15.19;100.00
23473;BME280;11909;52.516;13.564;2023-10-13T08:21:17;100365.78;;;15.29;100.00
23473;BME280;11909;52.516;13.564;2023-10-13T08:23:50;100367.75;;;15.28;100.00
23473;BME280;11909;52.516;13.564;2023-10-13T08:26:33;100376.69;;;15.34;100.00
23473;BME280;11909;52.516;13.564;2023-10-13T08:29:21;100378.50;;;15.47;100.00
23473;BME280;11909;52.516;13.564;2023-10-13T08:32:06;100378.50;;;15.47;100.00
23473;BME280;11909;52.516;13.564;2023-10-13T08:34:59;100365.81;;;15.46;100.00
23473;BME280;11909;52.516;13.564;2023-10-13T08:37:36;100367.13;;;15.49;100.00
23473;BME280;11909;52.516;13.564;2023-10-13T08:40:23;100358.50;;;15.51;100.00
23473;BME280;11909;52.516;13.564;2023-10-13T08:43:05;100357.19;;;15.57;100.00
23473;BME280;11909;52.516;13.564;2023-10-13T08:45:40;100363.88;;;15.56;100.00
23473;BME280;11909;52.516;13.564;2023-10-13T08:48:20;100365.66;;;15.60;100.00
23473;BME280;11909;52.516;13.564;2023-10-13T08:50:54;100357.88;;;15.71;100.00
23473;BME280;11909;52.516;13.564;2023-10-13T08:53:23;100360.13;;;15.69;100.00
23473;BME280;11909;52.516;13.564;2023-10-13T08:55:56;100353.66;;;15.74;100.00
23473;BME280;11909;52.516;13.564;2023-10-13T08:58:36;100344.84;;;15.72;100.00
23473;BME280;11909;52.516;13.564;2023-10-13T09:01:23;100336.56;;;15.72;100.00
23473;BME280;11909;52.516;13.564;2023-10-13T09:04:05;100336.69;;;15.84;100.00
23473;BME280;11909;52.516;13.564;2023-10-13T09:06:51;100335.06;;;15.83;100.00
23473;BME280;11909;52.516;13.564;2023-10-13T09:09:45;100327.75;;;15.78;100.00
23473;BME280;11909;52.516;13.564;2023-10-13T09:12:26;100316.06;;;15.82;100.00
23473;BME280;11909;52.516;13.564;2023-10-13T09:15:07;100328.09;;;15.86;100.00
23473;BME280;11909;52.516;13.564;2023-10-13T09:17:46;100324.19;;;15.87;100.00
23473;BME280;11909;52.516;13.564;2023-10-13T09:20:28;100332.34;;;15.92;100.00
23473;BME280;11909;52.516;13.564;2023-10-13T09:23:12;100337.22;;;16.04;100.00
23473;BME280;11909;52.516;13.564;2023-10-13T09:25:50;100326.44;;;16.02;100.00
23473;BME280;11909;52.516;13.564;2023-10-13T09:28:21;100326.44;;;16.02;100.00
23473;BME280;11909;52.516;13.564;2023-10-13T09:30:53;100317.03;;;16.03;100.00
23473;BME280;11909;52.516;13.564;2023-10-13T09:33:25;100313.44;;;16.03;100.00
23473;BME280;11909;52.516;13.564;2023-10-13T09:35:59;100307.25;;;16.06;100.00
23473;BME280;11909;52.516;13.564;2023-10-13T09:38:28;100306.41;;;16.14;100.00
23473;BME280;11909;52.516;13.564;2023-10-13T09:40:58;100296.47;;;16.13;100.00
23473;BME280;11909;52.516;13.564;2023-10-13T09:43:28;100296.34;;;16.10;100.00
23473;BME280;11909;52.516;13.564;2023-10-13T09:45:58;100290.47;;;16.11;100.00
23473;BME280;11909;52.516;13.564;2023-10-13T09:48:33;100282.47;;;16.27;100.00
23473;BME280;11909;52.516;13.564;2023-10-13T09:51:02;100283.59;;;16.26;100.00
23473;BME280;11909;52.516;13.564;2023-10-13T09:53:32;100264.06;;;16.23;100.00
23473;BME280;11909;52.516;13.564;2023-10-13T09:56:03;100260.19;;;16.15;100.00
23473;BME280;11909;52.516;13.564;2023-10-13T09:58:47;100256.44;;;16.11;100.00
23473;BME280;11909;52.516;13.564;2023-10-13T10:01:22;100253.66;;;16.19;100.00
23473;BME280;11909;52.516;13.564;2023-10-13T10:04:06;100247.28;;;16.19;100.00
23473;BME280;11909;52.516;13.564;2023-10-13T10:06:36;100235.22;;;16.24;100.00
23473;BME280;11909;52.516;13.564;2023-10-13T10:09:09;100232.00;;;16.22;100.00
23473;BME280;11909;52.516;13.564;2023-10-13T10:12:00;100229.88;;;16.18;100.00
23473;BME280;11909;52.516;13.564;2023-10-13T10:14:43;100226.28;;;16.18;100.00
23473;BME280;11909;52.516;13.564;2023-10-13T10:17:13;100219.78;;;16.14;100.00
23473;BME280;11909;52.516;13.564;2023-10-13T10:19:48;100205.97;;;16.14;100.00
23473;BME280;11909;52.516;13.564;2023-10-13T10:22:27;100213.88;;;16.24;100.00
23473;BME280;11909;52.516;13.564;2023-10-13T10:25:02;100214.19;;;16.31;100.00
23473;BME280;11909;52.516;13.564;2023-10-13T10:27:31;100206.09;;;16.26;100.00
23473;BME280;11909;52.516;13.564;2023-10-13T10:30:00;100213.41;;;16.22;100.00
23473;BME280;11909;52.516;13.564;2023-10-13T10:32:37;100198.41;;;16.23;100.00
23473;BME280;11909;52.516;13.564;2023-10-13T10:35:09;100196.63;;;16.27;100.00
23473;BME280;11909;52.516;13.564;2023-10-13T10:37:42;100187.31;;;16.32;100.00
23473;BME280;11909;52.516;13.564;2023-10-13T10:40:16;100191.66;;;16.42;100.00
23473;BME280;11909;52.516;13.564;2023-10-13T10:43:13;100207.78;;;16.40;100.00
23473;BME280;11909;52.516;13.564;2023-10-13T10:45:59;100201.59;;;16.43;100.00
23473;BME280;11909;52.516;13.564;2023-10-13T10:48:27;100198.19;;;16.37;100.00
23473;BME280;11909;52.516;13.564;2023-10-13T10:51:01;100196.72;;;16.40;100.00
23473;BME280;11909;52.516;13.564;2023-10-13T10:53:41;100204.78;;;16.54;100.00
23473;BME280;11909;52.516;13.564;2023-10-13T10:56:15;100184.94;;;16.52;100.00
23473;BME280;11909;52.516;13.564;2023-10-13T10:58:54;100175.00;;;16.51;100.00
23473;BME280;11909;52.516;13.564;2023-10-13T11:01:23;100172.69;;;16.53;100.00
23473;BME280;11909;52.516;13.564;2023-10-13T11:03:56;100150.34;;;16.58;100.00
23473;BME280;11909;52.516;13.564;2023-10-13T11:06:34;100135.22;;;16.55;100.00
23473;BME280;11909;52.516;13.564;2023-10-13T11:09:09;100121.91;;;16.48;100.00
23473;BME280;11909;52.516;13.564;2023-10-13T11:11:49;100110.16;;;16.52;100.00
23473;BME280;11909;52.516;13.564;2023-10-13T11:14:20;100111.75;;;16.53;100.00
23473;BME280;11909;52.516;13.564;2023-10-13T11:16:51;100104.06;;;16.58;100.00
23473;BME280;11909;52.516;13.564;2023-10-13T11:19:21;100102.44;;;16.57;100.00
23473;BME280;11909;52.516;13.564;2023-10-13T11:21:52;100100.38;;;16.54;100.00
23473;BME280;11909;52.516;13.564;2023-10-13T11:24:22;100092.63;;;16.60;100.00
23473;BME280;11909;52.516;13.564;2023-10-13T11:26:51;100080.75;;;16.59;100.00
23473;BME280;11909;52.516;13.564;2023-10-13T11:29:31;100097.31;;;16.68;100.00
23473;BME280;11909;52.516;13.564;2023-10-13T11:32:00;100097.66;;;16.67;100.00
23473;BME280;11909;52.516;13.564;2023-10-13T11:34:29;100077.03;;;16.76;100.00
23473;BME280;11909;52.516;13.564;2023-10-13T11:37:07;100075.88;;;16.77;100.00
23473;BME280;11909;52.516;13.564;2023-10-13T11:39:55;100090.28;;;16.71;100.00
23473;BME280;11909;52.516;13.564;2023-10-13T11:42:24;100070.22;;;16.74;100.00
23473;BME280;11909;52.516;13.564;2023-10-13T11:44:53;100077.72;;;16.73;100.00
23473;BME280;11909;52.516;13.564;2023-10-13T11:47:41;100067.47;;;16.74;100.00
23473;BME280;11909;52.516;13.564;2023-10-13T11:50:16;100064.81;;;16.77;100.00
23473;BME280;11909;52.516;13.564;2023-10-13T11:52:58;100053.41;;;16.79;100.00
23473;BME280;11909;52.516;13.564;2023-10-13T11:55:27;100056.16;;;16.79;100.00
23473;BME280;11909;52.516;13.564;2023-10-13T11:57:56;100063.06;;;16.73;100.00
23473;BME280;11909;52.516;13.564;2023-10-13T12:00:26;100062.31;;;16.85;100.00
23473;BME280;11909;52.516;13.564;2023-10-13T12:03:14;100058.09;;;16.78;100.00
23473;BME280;11909;52.516;13.564;2023-10-13T12:06:00;100047.38;;;16.77;100.00
23473;BME280;11909;52.516;13.564;2023-10-13T12:08:45;100044.41;;;16.82;100.00
23473;BME280;11909;52.516;13.564;2023-10-13T12:11:19;100044.41;;;16.82;100.00
23473;BME280;11909;52.516;13.564;2023-10-13T12:14:00;100039.00;;;16.86;100.00
23473;BME280;11909;52.516;13.564;2023-10-13T12:16:38;100033.44;;;16.86;100.00
23473;BME280;11909;52.516;13.564;2023-10-13T12:19:06;100029.06;;;16.85;100.00
23473;BME280;11909;52.516;13.564;2023-10-13T12:21:38;100031.16;;;16.88;100.00
23473;BME280;11909;52.516;13.564;2023-10-13T12:24:07;100023.75;;;16.92;100.00
23473;BME280;11909;52.516;13.564;2023-10-13T12:26:49;100034.50;;;16.94;100.00
23473;BME280;11909;52.516;13.564;2023-10-13T12:29:24;100032.22;;;16.96;100.00
23473;BME280;11909;52.516;13.564;2023-10-13T12:31:56;100030.06;;;17.01;100.00
23473;BME280;11909;52.516;13.564;2023-10-13T12:34:35;100023.81;;;17.04;100.00
23473;BME280;11909;52.516;13.564;2023-10-13T12:37:28;100022.94;;;17.13;100.00
23473;BME280;11909;52.516;13.564;2023-10-13T12:40:18;100022.38;;;17.19;100.00
23473;BME280;11909;52.516;13.564;2023-10-13T12:43:04;100039.16;;;17.36;100.00
23473;BME280;11909;52.516;13.564;2023-10-13T12:45:51;100022.63;;;17.27;100.00
23473;BME280;11909;52.516;13.564;2023-10-13T12:48:39;100033.72;;;17.39;100.00
23473;BME280;11909;52.516;13.564;2023-10-13T12:51:24;100030.00;;;17.35;100.00
23473;BME280;11909;52.516;13.564;2023-10-13T12:54:07;100023.34;;;17.48;100.00
23473;BME280;11909;52.516;13.564;2023-10-13T12:56:42;100019.84;;;17.39;100.00
23473;BME280;11909;52.516;13.564;2023-10-13T12:59:11;100008.56;;;17.44;100.00
23473;BME280;11909;52.516;13.564;2023-10-13T13:01:42;100017.09;;;17.52;100.00
23473;BME280;11909;52.516;13.564;2023-10-13T13:04:10;100010.06;;;17.54;100.00
23473;BME280;11909;52.516;13.564;2023-10-13T13:06:46;100020.69;;;17.65;100.00
23473;BME280;11909;52.516;13.564;2023-10-13T13:09:14;100020.22;;;17.62;100.00
23473;BME280;11909;52.516;13.564;2023-10-13T13:11:42;100000.22;;;17.57;100.00
23473;BME280;11909;52.516;13.564;2023-10-13T13:14:10;99992.25;;;17.68;100.00